Time;durP1;ratioP1;P1;durP2;ratioP2;P2;SDS_P1;SDS_P2;PMS_P1;PMS_P2;Temp;Humidity;BMP_temperature;BMP_pressure;BME280_temperature;BME280_humidity;BME280_pressure;Samples;Min_cycle;Max_cycle;Signal;HPM_P1;HPM_P2
2023/05/24 00:01:37;;;;;;;5.80;2.50;;;12.60;99.90;;;12.24;100.00;97542.81;4992087;28;20476;-37
2023/05/24 00:04:03;;;;;;;4.22;2.60;;;12.60;99.90;;;12.25;100.00;97541.03;5006453;28;20029;-36
2023/05/24 00:06:29;;;;;;;5.00;2.90;;;12.60;99.90;;;12.22;100.00;97536.69;5002431;28;20049;-36
2023/05/24 00:08:55;;;;;;;4.93;2.83;;;12.60;99.90;;;12.19;100.00;97539.50;5005720;28;20037;-36
2023/05/24 00:11:21;;;;;;;5.43;2.90;;;12.60;99.90;;;12.14;100.00;97536.19;5001560;28;20123;-36
2023/05/24 00:13:48;;;;;;;6.97;3.00;;;12.50;99.90;;;12.11;100.00;97537.16;5012140;28;20148;-36
2023/05/24 00:16:14;;;;;;;6.30;3.10;;;12.50;99.90;;;12.09;100.00;97531.06;5010767;28;20100;-36
2023/05/24 00:18:40;;;;;;;4.95;2.63;;;12.50;99.90;;;12.07;100.00;97537.34;5003072;28;20036;-36
2023/05/24 00:21:07;;;;;;;7.32;2.55;;;12.40;99.90;;;11.99;100.00;97517.38;5011109;28;20032;-36
2023/05/24 00:23:33;;;;;;;4.30;2.72;;;12.40;99.90;;;12.01;100.00;97527.91;5013638;28;20144;-36
2023/05/24 00:26:00;;;;;;;5.97;2.75;;;12.40;99.90;;;12.04;100.00;97530.38;5010720;28;20065;-36
2023/05/24 00:28:26;;;;;;;4.35;3.00;;;12.40;99.90;;;12.00;100.00;97532.28;5012943;28;20030;-36
2023/05/24 00:30:52;;;;;;;5.80;3.03;;;12.40;99.90;;;11.98;100.00;97528.88;5004236;28;20063;-36
2023/05/24 00:33:18;;;;;;;6.65;2.75;;;12.40;99.90;;;11.98;100.00;97520.94;5012737;28;20412;-36
2023/05/24 00:35:44;;;;;;;7.85;3.35;;;12.30;99.90;;;11.92;100.00;97513.25;5007861;28;20029;-36
2023/05/24 00:38:10;;;;;;;3.05;2.75;;;12.40;99.90;;;12.00;100.00;97520.88;5008060;28;20025;-36
2023/05/24 00:40:35;;;;;;;3.90;2.58;;;12.40;99.90;;;12.00;100.00;97510.31;5004557;28;20034;-37
2023/05/24 00:43:01;;;;;;;4.57;2.83;;;12.40;99.90;;;12.00;100.00;97510.31;5001704;28;20071;-36
2023/05/24 00:45:27;;;;;;;3.63;2.53;;;12.40;99.90;;;12.03;100.00;97511.03;5011311;28;20065;-36
2023/05/24 00:47:52;;;;;;;5.45;2.78;;;12.40;99.90;;;12.04;100.00;97511.88;5008226;28;20077;-36
2023/05/24 00:50:19;;;;;;;6.25;2.90;;;12.40;99.90;;;12.02;100.00;97514.63;5009402;28;20033;-36
2023/05/24 00:52:48;;;;;;;4.30;2.80;;;12.40;99.90;;;11.98;100.00;97509.50;5001301;28;20042;-36
2023/05/24 00:55:14;;;;;;;3.33;2.47;;;12.40;99.90;;;11.93;100.00;97519.41;4999650;28;20040;-36
2023/05/24 00:57:40;;;;;;;5.25;2.70;;;12.30;99.90;;;11.92;100.00;97510.63;5005096;28;20116;-36
2023/05/24 01:00:07;;;;;;;3.92;2.70;;;12.30;99.90;;;11.91;100.00;97510.69;5014041;28;20489;-36
2023/05/24 01:02:33;;;;;;;5.45;2.88;;;12.30;99.90;;;11.89;100.00;97510.69;5016831;28;20091;-36
2023/05/24 01:04:59;;;;;;;9.13;3.25;;;12.30;99.90;;;11.87;100.00;97512.56;5010706;28;20452;-36
2023/05/24 01:07:52;;;;;;;5.65;3.00;;;12.30;99.90;;;11.86;100.00;97513.47;5010090;28;20116;-36
2023/05/24 01:10:31;;;;;;;7.30;2.92;;;12.30;99.90;;;11.82;100.00;97507.44;5015270;28;20088;-36
2023/05/24 01:13:25;;;;;;;6.50;3.05;;;12.30;99.90;;;11.83;100.00;97521.53;5030538;28;20045;-36
2023/05/24 01:16:10;;;;;;;5.43;2.70;;;12.20;99.90;;;11.79;100.00;97512.88;5003589;28;20128;-36
2023/05/24 01:18:45;;;;;;;6.78;3.13;;;12.20;99.90;;;11.78;100.00;97508.50;4999368;28;20205;-37
2023/05/24 01:21:22;;;;;;;8.15;2.88;;;12.20;99.90;;;11.80;100.00;97514.56;5004741;28;20750;-36
2023/05/24 01:24:42;;;;;;;5.70;2.65;;;12.20;99.90;;;11.80;100.00;97517.22;4996837;28;20124;-36
2023/05/24 01:27:12;;;;;;;9.88;3.13;;;12.20;99.90;;;11.56;100.00;97473.31;4999476;28;20098;-36
2023/05/24 01:29:38;;;;;;;7.00;2.92;;;12.20;99.90;;;11.78;100.00;97515.56;5006676;28;20397;-36
2023/05/24 01:32:04;;;;;;;6.72;2.90;;;12.20;99.90;;;11.77;100.00;97514.72;5006906;28;20509;-36
2023/05/24 01:34:30;;;;;;;4.72;2.63;;;12.20;99.90;;;11.78;100.00;97510.28;5010090;28;20025;-36
2023/05/24 01:36:56;;;;;;;4.43;2.35;;;12.20;99.90;;;11.78;100.00;97513.78;5013110;28;20398;-36
2023/05/24 01:39:26;;;;;;;5.68;2.88;;;12.20;99.90;;;11.76;100.00;97512.13;5031060;22;20241;-37
2023/05/24 01:42:08;;;;;;;6.18;2.70;;;12.20;99.90;;;11.76;100.00;97510.34;4990928;28;20030;-37
2023/05/24 01:44:52;;;;;;;5.65;2.85;;;12.10;99.90;;;11.76;100.00;97506.84;4990395;28;20036;-37
2023/05/24 01:47:26;;;;;;;7.63;3.00;;;12.20;99.90;;;11.72;100.00;97514.03;4989939;28;20027;-37
2023/05/24 01:50:02;;;;;;;8.57;2.70;;;12.10;99.90;;;11.70;100.00;97517.66;4977475;28;20042;-38
2023/05/24 01:52:32;;;;;;;6.00;2.90;;;12.10;99.90;;;11.62;100.00;97512.66;4972867;28;20376;-37
2023/05/24 01:55:01;;;;;;;5.43;2.88;;;12.10;99.90;;;11.65;100.00;97516.06;4969434;28;20694;-37
2023/05/24 01:57:28;;;;;;;7.13;2.65;;;12.10;99.90;;;11.70;100.00;97523.81;4974513;28;20038;-37
2023/05/24 01:59:56;;;;;;;9.57;2.88;;;12.10;99.90;;;11.66;100.00;97519.53;4965187;28;20750;-37
2023/05/24 02:02:21;;;;;;;7.32;3.10;;;12.10;99.90;;;11.70;100.00;97522.94;4970856;28;20057;-37
2023/05/24 02:04:47;;;;;;;6.20;2.60;;;12.10;99.90;;;11.63;100.00;97514.41;4967235;28;20975;-37
2023/05/24 02:07:13;;;;;;;7.35;3.17;;;12.10;99.90;;;11.64;100.00;97519.59;4971019;28;20034;-37
2023/05/24 02:09:39;;;;;;;7.45;3.03;;;12.10;99.90;;;11.64;100.00;97518.75;4972260;28;20466;-37
2023/05/24 02:12:05;;;;;;;5.35;2.47;;;12.00;99.90;;;11.63;100.00;97527.63;4976870;28;20495;-37
2023/05/24 02:14:31;;;;;;;7.47;3.03;;;12.00;99.90;;;11.58;100.00;97530.41;4980774;28;20125;-37
2023/05/24 02:16:57;;;;;;;8.38;2.90;;;12.00;99.90;;;11.49;100.00;97516.72;4974203;28;20086;-37
2023/05/24 02:19:24;;;;;;;6.05;3.08;;;12.00;99.90;;;11.53;100.00;97529.72;4975194;28;20339;-37
2023/05/24 02:21:50;;;;;;;4.25;2.60;;;11.90;99.90;;;11.50;100.00;97521.91;4972974;28;20597;-37
2023/05/24 02:24:17;;;;;;;5.32;2.70;;;11.90;99.90;;;11.48;100.00;97520.28;4969530;28;20061;-37
2023/05/24 02:26:43;;;;;;;3.97;2.53;;;11.90;99.90;;;11.48;100.00;97526.41;4969025;28;20038;-37
2023/05/24 02:29:09;;;;;;;7.60;3.20;;;11.90;99.90;;;11.42;100.00;97530.16;4971141;28;20045;-37
2023/05/24 02:31:34;;;;;;;6.15;2.97;;;11.90;99.90;;;11.41;100.00;97530.19;4964960;28;20402;-37
2023/05/24 02:34:00;;;;;;;11.70;3.85;;;11.80;99.90;;;11.33;100.00;97529.66;4971662;28;20057;-37
2023/05/24 02:36:26;;;;;;;10.00;3.38;;;11.80;99.90;;;11.26;100.00;97524.59;4969567;28;20124;-37
2023/05/24 02:38:52;;;;;;;7.38;3.00;;;11.70;99.90;;;11.23;100.00;97524.72;4966858;28;20049;-37
2023/05/24 02:41:18;;;;;;;11.32;2.97;;;11.70;99.90;;;11.24;100.00;97525.56;4975155;28;20085;-37
2023/05/24 02:43:47;;;;;;;11.20;3.63;;;11.70;99.90;;;11.24;100.00;97529.06;4954503;28;20034;-37
2023/05/24 02:46:13;;;;;;;8.50;3.28;;;11.60;99.90;;;11.20;100.00;97523.97;4967823;28;20130;-37
2023/05/24 02:48:39;;;;;;;9.10;2.83;;;11.60;99.90;;;11.12;100.00;97518.97;4971905;28;20225;-37
2023/05/24 02:51:05;;;;;;;12.05;3.58;;;11.60;99.90;;;11.15;100.00;97524.13;4978152;28;20061;-37
2023/05/24 02:53:31;;;;;;;9.27;3.15;;;11.60;99.90;;;11.11;100.00;97529.56;4975541;28;20386;-36
2023/05/24 02:55:58;;;;;;;13.98;3.70;;;11.50;99.90;;;11.08;100.00;97531.41;4971101;28;20093;-37
2023/05/24 02:58:27;;;;;;;11.70;3.45;;;11.50;99.90;;;11.06;100.00;97527.13;4973696;28;20030;-36
2023/05/24 03:00:53;;;;;;;7.70;3.35;;;11.50;99.90;;;11.08;100.00;97530.56;4974183;28;20774;-36
2023/05/24 03:03:19;;;;;;;6.60;3.15;;;11.50;99.90;;;11.06;100.00;97527.97;4974640;28;20510;-36
2023/05/24 03:05:45;;;;;;;7.15;3.22;;;11.50;99.90;;;11.03;100.00;97524.59;4975112;28;20035;-37
2023/05/24 03:08:11;;;;;;;12.50;3.63;;;11.40;99.90;;;10.96;100.00;97525.72;4972533;28;20042;-36
2023/05/24 03:10:36;;;;;;;11.73;3.40;;;11.40;99.90;;;10.89;100.00;97518.03;4971467;28;20113;-37
2023/05/24 03:13:02;;;;;;;8.07;2.92;;;11.30;99.90;;;10.91;100.00;97523.28;4979675;28;20057;-36
2023/05/24 03:15:28;;;;;;;6.32;3.20;;;11.30;99.90;;;10.88;100.00;97521.59;4972152;28;20452;-36
2023/05/24 03:17:53;;;;;;;10.38;3.28;;;11.30;99.90;;;10.87;100.00;97522.53;4980064;28;20030;-36
2023/05/24 03:20:19;;;;;;;10.55;3.20;;;11.30;99.90;;;10.81;100.00;97520.09;4972869;28;20057;-36
2023/05/24 03:22:45;;;;;;;7.93;3.90;;;11.30;99.90;;;10.73;100.00;97511.59;4971049;28;20041;-36
2023/05/24 03:25:11;;;;;;;9.82;3.33;;;11.20;99.90;;;10.79;100.00;97519.28;4979653;28;20034;-37
2023/05/24 03:27:37;;;;;;;11.13;3.50;;;11.20;99.90;;;10.76;100.00;97519.38;4969917;28;20391;-37
2023/05/24 03:30:05;;;;;;;8.02;3.08;;;11.20;99.90;;;10.79;100.00;97521.94;4980071;28;20627;-36
2023/05/24 03:32:32;;;;;;;8.50;3.08;;;11.20;99.90;;;10.76;100.00;97510.63;4974300;28;20045;-36
2023/05/24 03:35:00;;;;;;;11.48;3.58;;;11.20;99.90;;;10.80;100.00;97526.28;4975718;28;20326;-36
2023/05/24 03:37:26;;;;;;;10.20;3.90;;;11.20;99.90;;;10.77;100.00;97521.13;4978653;28;20065;-36
2023/05/24 03:39:51;;;;;;;6.95;3.75;;;11.20;99.90;;;10.74;100.00;97523.88;4974109;28;20259;-36
2023/05/24 03:42:17;;;;;;;9.38;3.03;;;11.20;99.90;;;10.72;100.00;97523.06;4961480;28;20460;-36
2023/05/24 03:44:43;;;;;;;9.85;3.83;;;11.10;99.90;;;10.72;100.00;97523.06;4973813;28;20046;-37
2023/05/24 03:47:08;;;;;;;8.38;3.53;;;11.10;99.90;;;10.66;100.00;97526.78;4976290;28;20026;-37
2023/05/24 03:49:34;;;;;;;6.93;3.15;;;11.10;99.90;;;10.63;100.00;97528.66;4967370;28;20034;-36
2023/05/24 03:52:00;;;;;;;11.90;3.40;;;11.10;99.90;;;10.62;100.00;97522.53;4967212;28;20082;-36
2023/05/24 03:54:26;;;;;;;8.57;3.08;;;11.00;99.90;;;10.59;100.00;97524.41;4974439;28;20038;-36
2023/05/24 03:56:52;;;;;;;6.82;2.97;;;11.00;99.90;;;10.61;100.00;97530.50;4971334;28;20125;-36
2023/05/24 03:59:18;;;;;;;5.63;2.85;;;11.00;99.90;;;10.61;100.00;97519.94;4977383;28;20084;-36
2023/05/24 04:01:44;;;;;;;11.70;3.55;;;11.00;99.90;;;10.58;100.00;97520.06;4976889;28;20033;-36
2023/05/24 04:04:10;;;;;;;11.15;3.67;;;11.00;99.90;;;10.50;100.00;97512.41;4973451;28;20049;-38
2023/05/24 04:06:36;;;;;;;10.55;3.25;;;11.00;99.90;;;10.59;100.00;97519.16;4971762;28;20515;-37
2023/05/24 04:09:04;;;;;;;10.23;3.50;;;11.00;99.90;;;10.54;100.00;97518.44;4977194;28;20041;-36
2023/05/24 04:11:31;;;;;;;9.23;3.35;;;11.00;99.90;;;10.52;100.00;97513.22;4975525;28;20038;-36
2023/05/24 04:14:00;;;;;;;9.77;3.78;;;11.00;99.90;;;10.48;100.00;97508.94;4971464;28;20093;-37
2023/05/24 04:16:26;;;;;;;8.40;3.08;;;10.90;99.90;;;10.51;100.00;97514.13;4975020;28;20026;-37
2023/05/24 04:18:53;;;;;;;5.63;3.08;;;10.90;99.90;;;10.52;100.00;97509.72;4972545;28;20674;-36
2023/05/24 04:21:19;;;;;;;6.97;3.30;;;10.90;99.90;;;10.56;100.00;97513.97;4977134;28;20212;-36
2023/05/24 04:23:45;;;;;;;8.73;3.20;;;11.00;99.90;;;10.59;100.00;97505.97;4972737;28;20045;-36
2023/05/24 04:26:12;;;;;;;8.07;3.20;;;11.00;99.90;;;10.65;100.00;97511.00;4972022;28;20037;-36
2023/05/24 04:28:38;;;;;;;7.82;3.25;;;11.10;99.90;;;10.63;100.00;97497.88;4973378;28;21238;-36
2023/05/24 04:31:05;;;;;;;6.85;2.95;;;11.10;99.90;;;10.73;100.00;97514.25;4973451;28;20043;-36
2023/05/24 04:33:32;;;;;;;8.18;3.22;;;11.10;99.90;;;10.77;100.00;97512.34;4983544;28;20053;-36
2023/05/24 04:36:00;;;;;;;7.43;3.38;;;11.20;99.90;;;10.80;100.00;97515.75;4967450;28;20122;-36
2023/05/24 04:38:28;;;;;;;11.18;3.45;;;11.20;99.90;;;10.79;100.00;97516.66;4964334;28;20057;-36
2023/05/24 04:40:58;;;;;;;9.30;3.35;;;11.20;99.90;;;10.78;100.00;97512.28;4964873;28;21115;-37
2023/05/24 04:43:27;;;;;;;10.07;3.42;;;11.30;99.90;;;10.87;100.00;97522.53;4972442;28;20216;-36
2023/05/24 04:45:53;;;;;;;12.23;3.72;;;11.30;99.90;;;10.87;100.00;97524.28;4966737;28;20038;-37
2023/05/24 04:48:22;;;;;;;6.72;3.22;;;11.30;99.90;;;10.93;100.00;97531.09;4975019;28;20065;-38
2023/05/24 04:50:51;;;;;;;7.60;3.47;;;11.30;99.90;;;10.95;100.00;97530.16;4971121;28;20042;-37
2023/05/24 04:53:18;;;;;;;10.07;3.50;;;11.40;99.90;;;11.02;100.00;97536.94;4969029;28;20085;-37
2023/05/24 04:55:44;;;;;;;8.82;3.60;;;11.40;99.90;;;10.99;100.00;97531.75;4962527;28;20030;-38
2023/05/24 04:58:09;;;;;;;9.73;3.35;;;11.40;99.90;;;11.04;100.00;97540.38;4968943;28;20365;-39
2023/05/24 05:00:52;;;;;;;9.13;3.63;;;11.50;99.90;;;11.06;100.00;97549.09;4969063;28;20053;-38
2023/05/24 05:03:18;;;;;;;7.07;3.60;;;11.50;99.90;;;11.07;100.00;97547.31;4983341;28;20125;-38
2023/05/24 05:05:45;;;;;;;9.63;3.67;;;11.50;99.90;;;11.08;100.00;97549.03;4972473;28;20026;-39
2023/05/24 05:08:10;;;;;;;9.75;3.92;;;11.50;99.90;;;11.12;100.00;97544.50;4978924;28;20045;-38
2023/05/24 05:10:36;;;;;;;6.20;3.42;;;11.50;99.90;;;11.14;100.00;97550.59;4973883;28;20027;-38
2023/05/24 05:13:02;;;;;;;9.38;3.53;;;11.50;99.90;;;11.15;100.00;97550.53;4978293;28;20100;-38
2023/05/24 05:15:28;;;;;;;7.93;3.80;;;11.60;99.90;;;11.14;100.00;97548.78;4975385;28;20035;-38
2023/05/24 05:17:53;;;;;;;9.40;3.47;;;11.60;99.90;;;11.18;100.00;97558.34;4967380;28;20037;-39
2023/05/24 05:20:19;;;;;;;7.55;3.38;;;11.60;99.90;;;11.19;100.00;97546.00;4967318;28;20042;-39
2023/05/24 05:22:46;;;;;;;6.97;3.30;;;11.60;99.90;;;11.26;100.00;97558.06;4970854;28;20053;-38
2023/05/24 05:25:12;;;;;;;10.00;3.97;;;11.70;99.90;;;11.25;100.00;97559.84;4974930;28;20125;-38
2023/05/24 05:27:38;;;;;;;13.68;3.58;;;11.70;99.90;;;11.25;100.00;97553.69;4975684;28;20373;-38
2023/05/24 05:30:04;;;;;;;11.00;3.90;;;11.70;99.90;;;11.30;100.00;97557.00;4977120;28;20078;-37
2023/05/24 05:32:30;;;;;;;9.40;3.20;;;11.70;99.90;;;11.35;100.00;97547.13;4981292;28;20038;-38
2023/05/24 05:34:55;;;;;;;11.43;3.08;;;11.80;99.90;;;11.42;100.00;97547.78;4979977;28;20064;-38
2023/05/24 05:37:21;;;;;;;10.05;3.35;;;11.90;99.90;;;11.38;100.00;97539.13;4979517;28;20419;-37
2023/05/24 05:39:47;;;;;;;12.93;3.83;;;11.90;99.90;;;11.48;100.00;97551.97;4980513;28;20026;-36
2023/05/24 05:42:12;;;;;;;8.90;3.63;;;11.90;99.90;;;11.54;100.00;97555.25;4979650;28;20487;-37
2023/05/24 05:44:38;;;;;;;8.75;3.13;;;12.00;99.90;;;11.63;100.00;97549.59;4982420;28;20038;-37
2023/05/24 05:47:06;;;;;;;9.32;3.30;;;12.00;99.90;;;11.70;100.00;97555.50;4979901;28;20046;-38
2023/05/24 05:49:35;;;;;;;13.15;3.70;;;12.10;99.90;;;11.71;100.00;97554.56;4980971;28;20080;-37
2023/05/24 05:52:01;;;;;;;11.13;3.55;;;12.20;99.90;;;11.75;100.00;97560.59;4975831;28;20770;-37
2023/05/24 05:54:27;;;;;;;11.35;3.83;;;12.20;99.90;;;11.70;100.00;97550.22;4978552;28;20820;-36
2023/05/24 05:56:54;;;;;;;9.13;3.53;;;12.20;99.90;;;11.72;100.00;97552.78;4973694;28;20030;-37
2023/05/24 05:59:20;;;;;;;15.93;3.80;;;12.20;99.90;;;11.65;100.00;97554.81;4975405;28;20072;-37
2023/05/24 06:01:47;;;;;;;9.80;4.00;;;12.20;99.90;;;11.68;100.00;97557.31;4967342;28;20038;-37
2023/05/24 06:04:17;;;;;;;12.00;3.63;;;12.10;99.90;;;11.74;100.00;97557.09;4975026;28;20038;-37
2023/05/24 06:06:48;;;;;;;9.13;3.67;;;12.20;99.90;;;11.85;100.00;97554.03;4973556;28;20120;-36
2023/05/24 06:09:15;;;;;;;13.20;3.50;;;12.20;99.90;;;11.94;100.00;97553.69;4972667;28;20034;-37
2023/05/24 06:11:43;;;;;;;14.77;3.60;;;12.30;99.90;;;11.97;99.23;97552.72;4975348;28;20034;-37
2023/05/24 06:14:11;;;;;;;13.32;3.50;;;12.40;99.90;;;12.10;99.17;97559.22;4975910;28;20092;-36
2023/05/24 06:16:40;;;;;;;10.40;3.40;;;12.50;99.90;;;12.10;95.73;97553.09;4978433;28;20113;-37
2023/05/24 06:19:06;;;;;;;13.77;3.70;;;12.60;99.90;;;12.11;94.09;97541.59;4977343;28;20271;-37
2023/05/24 06:21:32;;;;;;;9.02;3.50;;;12.60;99.90;;;12.27;96.02;97545.31;4975414;28;20358;-37
2023/05/24 06:23:58;;;;;;;12.77;3.47;;;12.70;99.90;;;12.38;96.21;97550.16;4976971;28;20034;-37
2023/05/24 06:26:25;;;;;;;10.43;3.40;;;12.80;99.90;;;12.39;94.76;97543.97;4975119;28;20302;-37
2023/05/24 06:28:51;;;;;;;6.82;2.65;;;12.90;99.90;;;12.55;94.72;97550.31;4976681;28;20026;-37
2023/05/24 06:31:17;;;;;;;12.85;3.58;;;13.00;99.90;;;12.59;93.03;97540.47;4979182;28;20049;-37
2023/05/24 06:33:43;;;;;;;7.07;3.30;;;13.00;99.90;;;12.65;92.64;97549.91;4978578;28;20034;-37
2023/05/24 06:36:09;;;;;;;15.00;5.00;;;13.10;99.90;;;12.59;92.22;97545.75;4977867;28;20018;-37
2023/05/24 06:38:35;;;;;;;9.65;3.80;;;13.20;99.90;;;12.68;91.31;97555.94;4976686;28;20036;-38
2023/05/24 06:41:00;;;;;;;9.88;3.53;;;13.20;99.90;;;12.74;92.66;97560.97;4979025;28;20046;-37
2023/05/24 06:43:26;;;;;;;8.15;3.30;;;13.20;99.90;;;12.73;92.50;97561.91;4977469;28;20077;-37
2023/05/24 06:45:52;;;;;;;8.45;3.67;;;13.20;99.90;;;12.69;91.33;97565.59;4971546;28;20060;-37
2023/05/24 06:48:18;;;;;;;6.32;2.90;;;13.20;99.90;;;12.68;91.79;97560.38;4980697;28;20388;-37
2023/05/24 06:50:44;;;;;;;10.45;3.67;;;13.10;99.90;;;12.67;92.96;97564.81;4976563;28;22344;-37
2023/05/24 06:53:10;;;;;;;6.60;2.83;;;13.10;99.90;;;12.68;93.64;97570.97;4976415;28;20032;-37
2023/05/24 06:55:36;;;;;;;6.13;3.15;;;13.10;99.90;;;12.62;93.89;97574.72;4972701;28;20026;-37
2023/05/24 06:58:02;;;;;;;8.95;3.63;;;13.00;99.90;;;12.54;94.00;97577.72;4976532;28;20041;-37
2023/05/24 07:00:27;;;;;;;11.55;3.90;;;13.00;99.90;;;12.51;96.11;97582.28;4974794;28;20034;-37
2023/05/24 07:02:53;;;;;;;8.88;3.03;;;13.00;99.90;;;12.50;95.93;97589.31;4978215;28;20057;-38
2023/05/24 07:05:20;;;;;;;8.77;3.25;;;12.90;99.90;;;12.39;97.01;97594.22;4976032;28;20418;-38
2023/05/24 07:07:46;;;;;;;8.63;3.40;;;12.90;99.90;;;12.30;98.17;97584.00;4973826;28;20755;-37
2023/05/24 07:10:12;;;;;;;7.80;2.70;;;12.80;99.90;;;12.25;99.73;97578.91;4976252;28;20084;-37
2023/05/24 07:12:38;;;;;;;9.57;3.05;;;12.70;99.90;;;12.32;99.52;97595.38;4971968;28;20026;-36
2023/05/24 07:15:06;;;;;;;10.02;3.47;;;12.70;99.90;;;12.30;100.00;97595.44;4974447;28;20026;-37
2023/05/24 07:17:32;;;;;;;8.00;3.08;;;12.70;99.90;;;12.30;100.00;97598.09;4978970;28;20026;-39
2023/05/24 07:19:59;;;;;;;9.82;3.58;;;12.70;99.90;;;12.30;98.99;97606.03;4976101;28;20041;-37
2023/05/24 07:22:27;;;;;;;10.30;3.80;;;12.70;99.90;;;12.30;97.87;97608.66;4978309;28;20418;-37
2023/05/24 07:24:53;;;;;;;11.50;4.10;;;12.70;99.90;;;12.21;98.85;97601.97;4975970;28;20553;-37
2023/05/24 07:27:19;;;;;;;10.93;4.18;;;12.80;99.90;;;12.24;96.44;97616.84;4972950;28;20168;-37
2023/05/24 07:29:45;;;;;;;7.32;3.08;;;12.70;99.90;;;12.18;97.00;97611.78;4970803;28;20035;-38
2023/05/24 07:32:11;;;;;;;7.90;3.28;;;12.70;99.90;;;12.14;98.86;97612.84;4976241;28;20062;-38
2023/05/24 07:34:38;;;;;;;9.95;3.35;;;12.60;99.90;;;12.03;100.00;97600.91;4976614;28;20034;-38
2023/05/24 07:37:04;;;;;;;9.60;4.15;;;12.50;99.90;;;12.12;100.00;97617.34;4976478;28;20030;-37
2023/05/24 07:39:30;;;;;;;10.20;3.40;;;12.50;99.90;;;12.16;100.00;97619.78;4977213;28;20042;-36
2023/05/24 07:41:56;;;;;;;14.75;4.00;;;12.60;99.90;;;12.33;100.00;97616.47;4970481;28;20129;-37
2023/05/24 07:44:22;;;;;;;11.13;3.50;;;12.80;99.90;;;12.66;97.21;97625.75;4973476;28;20042;-36
2023/05/24 07:46:48;;;;;;;15.13;3.92;;;13.00;99.90;;;12.83;92.49;97607.38;4975290;28;20030;-37
2023/05/24 07:49:14;;;;;;;11.68;3.90;;;13.30;99.90;;;13.03;90.23;97610.91;4974176;28;20041;-37
2023/05/24 07:51:40;;;;;;;10.65;3.47;;;13.50;99.90;;;13.15;90.15;97610.38;4973734;28;20461;-37
2023/05/24 07:54:06;;;;;;;9.75;3.50;;;13.70;99.90;;;13.23;88.30;97621.50;4975937;28;20692;-37
2023/05/24 07:56:31;;;;;;;10.77;4.07;;;13.70;99.90;;;13.30;89.48;97620.31;4976158;28;20479;-37
2023/05/24 07:59:03;;;;;;;10.35;3.53;;;13.80;99.90;;;13.41;89.81;97622.53;4973994;28;20634;-37
2023/05/24 08:01:31;;;;;;;17.08;3.80;;;13.80;99.90;;;13.54;89.17;97625.47;4976362;28;20385;-37
2023/05/24 08:03:56;;;;;;;13.93;3.92;;;14.00;99.90;;;13.59;87.99;97607.56;4973929;28;20037;-37
2023/05/24 08:06:23;;;;;;;9.80;3.42;;;14.10;99.90;;;13.80;86.62;97626.06;4976337;28;20022;-37
2023/05/24 08:08:49;;;;;;;12.38;3.40;;;14.30;99.90;;;13.86;87.47;97624.00;4977233;28;20042;-37
2023/05/24 08:11:14;;;;;;;9.68;3.40;;;14.40;99.90;;;14.08;86.79;97623.81;4975425;28;20022;-36
2023/05/24 08:13:40;;;;;;;13.55;3.70;;;14.50;99.90;;;14.18;82.21;97636.69;4976454;28;20037;-37
2023/05/24 08:16:06;;;;;;;13.07;3.85;;;14.60;99.90;;;14.11;82.92;97638.75;4975503;28;20217;-37
2023/05/24 08:18:32;;;;;;;8.93;3.42;;;14.60;99.90;;;14.18;83.46;97639.34;4977130;28;20037;-37
2023/05/24 08:20:57;;;;;;;11.50;3.53;;;14.60;99.90;;;14.15;81.30;97637.66;4972576;28;20092;-37
2023/05/24 08:23:23;;;;;;;12.13;3.80;;;14.60;99.90;;;14.23;81.75;97639.94;4975840;28;20057;-37
2023/05/24 08:25:49;;;;;;;9.73;3.70;;;14.70;99.90;;;14.32;82.67;97648.34;4977475;28;22139;-37
2023/05/24 08:28:15;;;;;;;7.53;3.83;;;14.80;99.90;;;14.32;79.30;97637.72;4977910;28;20502;-37
2023/05/24 08:30:42;;;;;;;11.35;3.60;;;14.80;99.90;;;14.31;80.65;97643.97;4969063;28;20137;-37
2023/05/24 08:33:08;;;;;;;11.75;3.28;;;14.80;99.90;;;14.19;80.16;97644.53;4971588;28;20038;-37
2023/05/24 08:35:34;;;;;;;11.25;3.55;;;14.80;99.90;;;14.16;81.85;97633.22;4972352;28;20038;-37
2023/05/24 08:38:00;;;;;;;12.43;3.10;;;14.70;99.90;;;14.23;81.76;97643.47;4970889;28;20030;-37
2023/05/24 08:40:26;;;;;;;10.65;3.60;;;14.80;99.90;;;14.37;83.30;97639.28;4972164;28;20241;-37
2023/05/24 08:42:55;;;;;;;12.85;3.88;;;14.80;99.90;;;14.47;79.53;97648.53;4972950;28;20045;-37
2023/05/24 08:45:21;;;;;;;9.95;3.38;;;14.90;99.90;;;14.44;75.69;97643.38;4986759;28;21856;-37
2023/05/24 08:47:49;;;;;;;8.80;3.63;;;15.00;99.90;;;14.57;78.02;97643.63;4973033;28;20512;-38
2023/05/24 08:50:15;;;;;;;11.90;4.10;;;15.10;99.90;;;14.69;73.25;97649.22;4975274;28;20495;-37
2023/05/24 08:52:44;;;;;;;9.20;3.53;;;15.30;99.90;;;14.80;80.64;97645.16;4969109;28;20057;-37
2023/05/24 08:55:11;;;;;;;8.90;2.92;;;15.40;99.90;;;15.14;77.68;97667.38;4972431;28;20106;-37
2023/05/24 08:57:39;;;;;;;8.55;3.17;;;15.60;99.90;;;15.22;73.58;97651.91;4974676;28;20366;-37
2023/05/24 09:00:10;;;;;;;11.70;4.15;;;15.70;99.90;;;15.07;72.91;97656.19;4973919;28;20956;-37
2023/05/24 09:02:38;;;;;;;11.25;3.58;;;15.60;99.90;;;15.03;70.60;97659.94;4973070;28;20038;-37
2023/05/24 09:05:08;;;;;;;13.40;4.15;;;15.50;99.90;;;14.89;72.22;97650.91;4971404;28;20030;-37
2023/05/24 09:07:35;;;;;;;13.23;3.90;;;15.40;99.90;;;14.66;72.55;97662.66;4987395;28;20062;-37
2023/05/24 09:10:05;;;;;;;9.20;3.50;;;15.20;99.90;;;14.43;74.24;97650.47;4971096;28;20376;-37
2023/05/24 09:12:33;;;;;;;11.45;3.90;;;15.10;99.90;;;14.16;72.30;97655.31;4973941;28;20035;-37
2023/05/24 09:14:58;;;;;;;10.38;3.65;;;14.80;99.90;;;14.05;77.33;97652.28;4973031;28;20034;-37
2023/05/24 09:17:24;;;;;;;13.13;3.70;;;14.60;99.90;;;13.98;80.38;97653.50;4975031;28;20394;-37
2023/05/24 09:19:52;;;;;;;10.95;3.20;;;14.50;99.90;;;14.01;80.30;97648.06;4977766;28;20034;-37
2023/05/24 09:22:24;;;;;;;9.68;3.53;;;14.40;99.90;;;13.90;80.87;97632.66;4981927;28;20026;-37
2023/05/24 09:24:51;;;;;;;9.82;3.85;;;14.40;99.90;;;13.84;80.84;97648.88;4975428;28;20092;-37
2023/05/24 09:27:21;;;;;;;14.07;3.75;;;14.30;99.90;;;13.82;81.14;97648.94;4978120;28;20045;-37
2023/05/24 09:29:48;;;;;;;13.35;4.05;;;14.30;99.90;;;13.74;79.08;97648.41;4979371;28;20049;-37
2023/05/24 09:32:15;;;;;;;8.40;3.70;;;14.30;99.90;;;13.77;84.50;97658.03;4978044;28;20085;-37
2023/05/24 09:34:47;;;;;;;8.85;3.10;;;14.20;99.90;;;13.83;84.87;97652.44;4981780;28;20026;-37
2023/05/24 09:37:22;;;;;;;8.88;3.70;;;14.20;99.90;;;13.78;81.65;97651.78;4978842;28;20436;-37
2023/05/24 09:39:52;;;;;;;11.07;3.63;;;14.20;99.90;;;13.81;83.47;97659.59;4978362;28;20077;-36
2023/05/24 09:42:27;;;;;;;12.85;3.63;;;14.20;99.90;;;13.69;86.02;97661.88;4971987;28;20050;-36
2023/05/24 09:45:09;;;;;;;13.02;3.60;;;14.20;99.90;;;13.64;87.38;97644.44;4972342;28;20072;-36
2023/05/24 09:47:37;;;;;;;14.27;3.70;;;14.20;99.90;;;13.77;84.75;97658.03;4972242;28;20034;-36
2023/05/24 09:50:05;;;;;;;10.80;3.33;;;14.20;99.90;;;13.72;83.82;97656.44;4980126;28;20049;-37
2023/05/24 09:52:36;;;;;;;10.43;3.45;;;14.10;99.90;;;13.61;85.13;97655.22;4979142;28;20061;-36
2023/05/24 09:55:12;;;;;;;11.77;3.63;;;14.10;99.90;;;13.60;85.22;97658.78;4978505;28;20037;-35
2023/05/24 09:57:38;;;;;;;10.02;3.67;;;14.00;99.90;;;13.52;87.62;97661.78;4962891;28;20486;-35
2023/05/24 10:00:13;;;;;;;9.80;3.40;;;13.90;99.90;;;13.53;87.54;97660.84;4972031;28;20037;-37
2023/05/24 10:02:39;;;;;;;8.57;3.53;;;13.90;99.90;;;13.51;86.08;97671.53;4973996;28;20030;-37
2023/05/24 10:05:05;;;;;;;11.57;4.03;;;13.90;99.90;;;13.43;85.03;97668.34;4969025;28;24039;-37
2023/05/24 10:07:33;;;;;;;9.95;3.70;;;13.90;99.90;;;13.39;85.95;97668.53;4964734;28;20321;-36
2023/05/24 10:10:00;;;;;;;13.20;4.60;;;13.80;99.90;;;13.27;87.04;97654.88;4974059;28;20084;-37
2023/05/24 10:12:27;;;;;;;8.00;3.30;;;13.80;99.90;;;13.27;87.67;97667.25;4975772;28;20034;-37
2023/05/24 10:14:56;;;;;;;7.50;3.80;;;13.70;99.90;;;13.24;87.02;97665.59;4974424;28;20065;-39